createdAt,value
2023-05-22T00:00:31.884Z,7.70
2023-05-22T00:02:38.767Z,8.10
2023-05-22T00:04:40.599Z,7.18
2023-05-22T00:06:42.951Z,8.80
2023-05-22T00:08:44.869Z,5.65
2023-05-22T00:10:46.360Z,6.60
2023-05-22T00:12:47.944Z,8.10
2023-05-22T00:14:49.444Z,5.25
2023-05-22T00:16:51.046Z,6.35
2023-05-22T00:18:52.784Z,7.68
2023-05-22T00:20:54.472Z,5.45
2023-05-22T00:22:56.917Z,8.13
2023-05-22T00:24:58.477Z,7.22
2023-05-22T00:27:00.048Z,9.88
2023-05-22T00:29:02.049Z,6.40
2023-05-22T00:31:04.007Z,7.22
2023-05-22T00:33:05.680Z,5.70
2023-05-22T00:35:07.968Z,6.50
2023-05-22T00:37:10.730Z,5.30
2023-05-22T00:39:12.251Z,5.20
2023-05-22T00:41:14.006Z,5.43
2023-05-22T00:43:17.444Z,9.13
2023-05-22T00:45:19.001Z,9.82
2023-05-22T00:47:21.225Z,7.85
2023-05-22T00:49:22.726Z,6.15
2023-05-22T00:51:24.896Z,5.30
2023-05-22T00:53:28.767Z,7.20
2023-05-22T00:55:30.801Z,16.33
2023-05-22T00:57:33.891Z,5.90
2023-05-22T00:59:36.240Z,7.15
2023-05-22T01:01:42.164Z,10.30
2023-05-22T01:03:45.915Z,5.78
2023-05-22T01:05:47.653Z,7.75
2023-05-22T01:07:49.186Z,6.72
2023-05-22T01:09:52.580Z,7.40
2023-05-22T01:12:16.969Z,6.28
2023-05-22T01:14:34.020Z,8.40
2023-05-22T01:16:41.826Z,8.20
2023-05-22T01:18:58.771Z,11.73
2023-05-22T01:21:26.330Z,5.57
2023-05-22T01:23:42.921Z,5.72
2023-05-22T01:26:06.492Z,7.93
2023-05-22T01:28:29.831Z,5.65
2023-05-22T01:30:56.148Z,6.20
2023-05-22T01:32:59.066Z,7.63
2023-05-22T01:35:03.443Z,10.43
2023-05-22T01:37:05.352Z,5.28
2023-05-22T01:39:07.870Z,5.07
2023-05-22T01:41:09.874Z,7.85
2023-05-22T01:43:12.583Z,6.72
2023-05-22T01:45:14.586Z,6.38
2023-05-22T01:47:16.850Z,8.85
2023-05-22T01:49:18.608Z,8.18
2023-05-22T01:51:42.023Z,5.75
2023-05-22T01:53:54.482Z,8.10
2023-05-22T01:56:09.994Z,5.50
2023-05-22T01:58:38.729Z,9.88
2023-05-22T02:00:43.779Z,7.57
2023-05-22T02:02:50.812Z,5.25
2023-05-22T02:04:56.995Z,5.72
2023-05-22T02:07:01.121Z,5.45
2023-05-22T02:09:03.127Z,7.57
2023-05-22T02:11:05.419Z,7.32
2023-05-22T02:13:07.090Z,6.93
2023-05-22T02:15:09.066Z,8.82
2023-05-22T02:17:10.590Z,7.60
2023-05-22T02:19:12.084Z,7.63
2023-05-22T02:21:13.765Z,11.18
2023-05-22T02:23:15.285Z,8.00
2023-05-22T02:25:17.749Z,7.68
2023-05-22T02:27:19.313Z,6.97
2023-05-22T02:29:20.849Z,6.70
2023-05-22T02:31:22.470Z,5.78
2023-05-22T02:33:24.023Z,11.88
2023-05-22T02:35:25.673Z,6.55
2023-05-22T02:37:27.178Z,6.90
2023-05-22T02:39:28.722Z,7.60
2023-05-22T02:41:30.350Z,9.05
2023-05-22T02:43:31.837Z,5.95
2023-05-22T02:45:33.396Z,6.07
2023-05-22T02:47:34.956Z,8.43
2023-05-22T02:49:36.484Z,6.47
2023-05-22T02:51:37.995Z,5.70
2023-05-22T02:53:41.228Z,10.18
2023-05-22T02:55:43.406Z,6.65
2023-05-22T02:57:44.903Z,5.97
2023-05-22T02:59:46.437Z,9.38
2023-05-22T03:01:48.472Z,7.40
2023-05-22T03:03:50.687Z,7.32
2023-05-22T03:05:58.498Z,12.30
2023-05-22T03:08:00.122Z,8.43
2023-05-22T03:10:01.730Z,7.47
2023-05-22T03:12:03.651Z,6.47
2023-05-22T03:14:05.231Z,6.57
2023-05-22T03:16:07.152Z,7.75
2023-05-22T03:18:08.702Z,7.82
2023-05-22T03:20:10.834Z,6.80
2023-05-22T03:22:12.524Z,5.70
2023-05-22T03:24:14.101Z,5.90
2023-05-22T03:26:15.590Z,6.05
2023-05-22T03:28:17.116Z,5.43
2023-05-22T03:30:18.748Z,6.95
2023-05-22T03:32:20.333Z,8.02
2023-05-22T03:34:27.354Z,13.55
2023-05-22T03:36:32.362Z,6.20
2023-05-22T03:38:33.973Z,6.22
2023-05-22T03:40:35.634Z,7.60
2023-05-22T03:42:37.112Z,10.00
2023-05-22T03:44:38.700Z,6.45
2023-05-22T03:46:40.329Z,7.38
2023-05-22T03:48:41.824Z,7.55
2023-05-22T03:50:43.464Z,8.52
2023-05-22T03:52:44.988Z,8.05
2023-05-22T03:54:46.486Z,7.97
2023-05-22T03:56:48.034Z,9.13
2023-05-22T03:58:50.308Z,6.05
2023-05-22T04:00:54.107Z,7.78
2023-05-22T04:02:58.625Z,6.30
2023-05-22T04:05:00.689Z,9.48
2023-05-22T04:07:02.681Z,8.90
2023-05-22T04:09:04.528Z,9.93
2023-05-22T04:11:06.197Z,6.95
2023-05-22T04:13:07.733Z,7.57
2023-05-22T04:15:09.559Z,6.20
2023-05-22T04:17:11.844Z,9.23
2023-05-22T04:19:14.037Z,7.50
2023-05-22T04:21:15.596Z,6.20
2023-05-22T04:23:17.673Z,13.73
2023-05-22T04:25:19.187Z,5.53
2023-05-22T04:27:22.550Z,5.57
2023-05-22T04:29:24.771Z,5.75
2023-05-22T04:31:26.395Z,8.88
2023-05-22T04:33:29.007Z,9.35
2023-05-22T04:35:30.612Z,9.68
2023-05-22T04:37:32.167Z,5.55
2023-05-22T04:39:34.324Z,12.90
2023-05-22T04:41:35.876Z,9.07
2023-05-22T04:43:38.704Z,6.68
2023-05-22T04:45:42.269Z,6.53
2023-05-22T04:47:43.803Z,9.98
2023-05-22T04:49:46.325Z,10.65
2023-05-22T04:51:47.809Z,9.35
2023-05-22T04:53:49.826Z,10.35
2023-05-22T04:55:51.398Z,9.13
2023-05-22T04:57:53.646Z,9.25
2023-05-22T04:59:57.065Z,10.20
2023-05-22T05:01:58.719Z,6.30
2023-05-22T05:04:00.707Z,6.55
2023-05-22T05:06:02.318Z,9.80
2023-05-22T05:08:03.892Z,5.57
2023-05-22T05:10:07.052Z,5.80
2023-05-22T05:12:08.767Z,4.93
2023-05-22T05:14:10.335Z,11.88
2023-05-22T05:16:12.216Z,6.65
2023-05-22T05:18:13.934Z,6.95
2023-05-22T05:20:15.584Z,25.35
2023-05-22T05:22:17.103Z,13.43
2023-05-22T05:24:18.863Z,4.35
2023-05-22T05:26:21.878Z,6.50
2023-05-22T05:28:23.430Z,5.03
2023-05-22T05:30:24.969Z,5.30
2023-05-22T05:32:29.751Z,9.38
2023-05-22T05:34:31.380Z,5.70
2023-05-22T05:36:32.915Z,7.25
2023-05-22T05:38:34.478Z,6.43
2023-05-22T05:40:36.204Z,5.97
2023-05-22T05:42:37.762Z,9.43
2023-05-22T05:44:39.393Z,6.00
2023-05-22T05:46:41.419Z,6.20
2023-05-22T05:48:43.901Z,5.13
2023-05-22T05:50:45.596Z,6.15
2023-05-22T05:52:47.082Z,5.60
2023-05-22T05:54:58.645Z,4.07
2023-05-22T05:57:00.211Z,6.93
2023-05-22T05:59:01.745Z,4.80
2023-05-22T06:01:03.526Z,9.50
2023-05-22T06:03:05.054Z,11.85
2023-05-22T06:05:07.033Z,11.15
2023-05-22T06:07:08.585Z,9.00
2023-05-22T06:09:10.402Z,5.65
2023-05-22T06:11:11.971Z,6.38
2023-05-22T06:13:13.537Z,4.88
2023-05-22T06:15:15.036Z,5.40
2023-05-22T06:17:16.871Z,8.20
2023-05-22T06:19:18.464Z,4.22
2023-05-22T06:21:22.808Z,4.70
2023-05-22T06:23:24.310Z,5.95
2023-05-22T06:25:29.942Z,5.03
2023-05-22T06:27:32.093Z,5.20
2023-05-22T06:29:33.619Z,5.50
2023-05-22T06:31:38.032Z,12.85
2023-05-22T06:33:40.774Z,6.95
2023-05-22T06:35:42.599Z,7.50
2023-05-22T06:37:44.179Z,6.68
2023-05-22T06:39:45.771Z,5.13
2023-05-22T06:41:47.292Z,4.07
2023-05-22T06:43:48.799Z,10.02
2023-05-22T06:45:50.523Z,9.52
2023-05-22T06:47:55.523Z,9.65
2023-05-22T06:49:57.105Z,5.05
2023-05-22T06:51:58.628Z,5.05
2023-05-22T06:54:00.193Z,4.45
2023-05-22T06:56:01.692Z,4.68
2023-05-22T06:58:03.199Z,6.43
2023-05-22T07:00:09.277Z,5.28
2023-05-22T07:02:10.825Z,7.00
2023-05-22T07:04:13.354Z,5.53
2023-05-22T07:06:15.568Z,5.20
2023-05-22T07:08:17.150Z,6.85
2023-05-22T07:10:18.660Z,6.22
2023-05-22T07:12:20.891Z,5.20
2023-05-22T07:14:22.485Z,4.35
2023-05-22T07:16:25.660Z,7.45
2023-05-22T07:18:27.198Z,4.70
2023-05-22T07:20:28.879Z,7.68
2023-05-22T07:22:30.776Z,8.48
2023-05-22T07:24:32.292Z,5.13
2023-05-22T07:26:38.005Z,5.07
2023-05-22T07:28:39.534Z,5.22
2023-05-22T07:30:41.380Z,9.13
2023-05-22T07:32:43.154Z,5.97
2023-05-22T07:34:44.778Z,4.90
2023-05-22T07:36:47.184Z,4.35
2023-05-22T07:38:48.713Z,6.32
2023-05-22T07:40:50.366Z,11.32
2023-05-22T07:42:51.886Z,4.28
2023-05-22T07:44:53.413Z,4.40
2023-05-22T07:46:55.604Z,4.97
2023-05-22T07:48:57.528Z,8.35
2023-05-22T07:50:59.073Z,4.05
2023-05-22T07:53:01.043Z,4.47
2023-05-22T07:55:02.620Z,9.63
2023-05-22T07:57:04.260Z,6.00
2023-05-22T07:59:07.404Z,6.30
2023-05-22T08:01:09.725Z,4.30
2023-05-22T08:03:12.354Z,5.70
2023-05-22T08:05:14.220Z,6.15
2023-05-22T08:07:15.818Z,8.23
2023-05-22T08:09:17.377Z,6.32
2023-05-22T08:11:19.071Z,5.53
2023-05-22T08:13:20.681Z,11.50
2023-05-22T08:15:22.161Z,8.00
2023-05-22T08:17:23.742Z,5.15
2023-05-22T08:19:25.915Z,7.32
2023-05-22T08:21:27.501Z,8.15
2023-05-22T08:23:29.924Z,6.45
2023-05-22T08:25:31.601Z,5.60
2023-05-22T08:27:33.113Z,4.95
2023-05-22T08:29:34.667Z,12.43
2023-05-22T08:31:36.230Z,6.97
2023-05-22T08:33:37.968Z,8.23
2023-05-22T08:35:39.708Z,9.82
2023-05-22T08:37:41.532Z,6.22
2023-05-22T08:39:43.076Z,4.45
2023-05-22T08:41:45.036Z,6.13
2023-05-22T08:43:46.531Z,13.02
2023-05-22T08:45:59.792Z,6.85
2023-05-22T08:48:06.061Z,8.50
2023-05-22T08:50:09.289Z,13.80
2023-05-22T08:52:14.462Z,16.20
2023-05-22T08:54:18.715Z,6.28
2023-05-22T08:56:21.185Z,15.02
2023-05-22T08:58:23.613Z,5.50
2023-05-22T09:00:25.240Z,6.25
2023-05-22T09:02:27.078Z,5.63
2023-05-22T09:04:28.798Z,10.73
2023-05-22T09:06:30.455Z,5.50
2023-05-22T09:08:31.974Z,5.85
2023-05-22T09:10:34.087Z,9.10
2023-05-22T09:12:35.921Z,9.57
2023-05-22T09:14:41.164Z,12.18
2023-05-22T09:16:46.081Z,7.07
2023-05-22T09:18:47.777Z,13.45
2023-05-22T09:20:50.832Z,6.72
2023-05-22T09:22:52.653Z,13.73
2023-05-22T09:24:59.205Z,6.95
2023-05-22T09:27:04.147Z,7.55
2023-05-22T09:29:07.330Z,11.00
2023-05-22T09:31:09.502Z,9.52
2023-05-22T09:33:12.931Z,10.70
2023-05-22T09:35:14.773Z,10.80
2023-05-22T09:37:17.484Z,8.98
2023-05-22T09:39:19.016Z,11.35
2023-05-22T09:41:22.518Z,7.97
2023-05-22T09:43:27.747Z,6.53
2023-05-22T09:45:29.329Z,8.95
2023-05-22T09:47:34.339Z,6.22
2023-05-22T09:49:37.437Z,13.18
2023-05-22T09:51:43.908Z,8.20
2023-05-22T09:53:48.174Z,5.80
2023-05-22T09:55:51.040Z,7.43
2023-05-22T09:57:53.513Z,6.10
2023-05-22T09:59:58.243Z,13.95
2023-05-22T10:02:02.080Z,9.00
2023-05-22T10:04:04.758Z,7.68
2023-05-22T10:06:07.480Z,6.13
2023-05-22T10:08:14.812Z,7.82
2023-05-22T10:10:18.934Z,5.80
2023-05-22T10:12:22.109Z,8.50
2023-05-22T10:14:24.810Z,5.85
2023-05-22T10:16:27.968Z,10.25
2023-05-22T10:18:30.409Z,7.60
2023-05-22T10:20:32.143Z,12.00
2023-05-22T10:22:40.486Z,6.10
2023-05-22T10:24:42.677Z,5.97
2023-05-22T10:26:44.637Z,5.38
2023-05-22T10:28:53.356Z,5.47
2023-05-22T10:31:06.589Z,18.65
2023-05-22T10:33:14.238Z,10.60
2023-05-22T10:35:40.261Z,9.88
2023-05-22T10:37:44.631Z,10.00
2023-05-22T10:40:02.502Z,10.32
2023-05-22T10:42:04.442Z,6.63
2023-05-22T10:44:06.742Z,16.20
2023-05-22T10:46:09.804Z,13.13
2023-05-22T10:48:12.576Z,8.93
2023-05-22T10:50:14.248Z,11.20
2023-05-22T10:52:16.123Z,13.30
2023-05-22T10:54:17.764Z,11.63
2023-05-22T10:56:19.565Z,9.48
2023-05-22T10:58:32.336Z,8.68
2023-05-22T11:00:37.968Z,6.57
2023-05-22T11:02:44.528Z,7.38
2023-05-22T11:04:46.104Z,8.50
2023-05-22T11:07:01.931Z,8.57
2023-05-22T11:09:30.132Z,7.75
2023-05-22T11:13:34.454Z,6.60
2023-05-22T11:15:36.024Z,7.05
2023-05-22T11:17:46.694Z,12.40
2023-05-22T11:20:06.797Z,11.90
2023-05-22T11:22:08.800Z,12.77
2023-05-22T11:24:10.962Z,8.70
2023-05-22T11:26:21.464Z,18.27
2023-05-22T11:28:23.268Z,12.13
2023-05-22T11:30:26.125Z,10.20
2023-05-22T11:32:28.278Z,13.90
2023-05-22T11:34:29.842Z,10.40
2023-05-22T11:36:31.835Z,10.98
2023-05-22T11:38:33.615Z,11.10
2023-05-22T11:40:35.146Z,11.88
2023-05-22T11:42:37.727Z,8.50
2023-05-22T11:44:40.648Z,6.40
2023-05-22T11:46:42.323Z,8.32
2023-05-22T11:48:44.188Z,7.47
2023-05-22T11:50:45.966Z,9.32
2023-05-22T11:52:47.951Z,6.30
2023-05-22T11:54:51.595Z,7.20
2023-05-22T11:56:53.113Z,6.50
2023-05-22T11:58:54.614Z,8.82
2023-05-22T12:01:01.113Z,9.00
2023-05-22T12:03:02.813Z,13.82
2023-05-22T12:05:05.470Z,9.10
2023-05-22T12:07:07.812Z,10.15
2023-05-22T12:09:09.656Z,16.98
2023-05-22T12:11:14.340Z,12.60
2023-05-22T12:13:25.413Z,13.15
2023-05-22T12:15:27.096Z,12.45
2023-05-22T12:17:28.886Z,10.02
2023-05-22T12:19:30.660Z,7.85
2023-05-22T12:21:32.388Z,9.73
2023-05-22T12:23:34.001Z,10.02
2023-05-22T12:25:38.649Z,7.90
2023-05-22T12:27:40.142Z,11.23
2023-05-22T12:29:42.737Z,9.98
2023-05-22T12:31:46.442Z,7.78
2023-05-22T12:33:48.116Z,12.40
2023-05-22T12:35:52.787Z,7.25
2023-05-22T12:37:54.293Z,10.55
2023-05-22T12:40:00.956Z,7.60
2023-05-22T12:42:02.474Z,11.32
2023-05-22T12:44:04.822Z,15.77
2023-05-22T12:46:06.352Z,7.60
2023-05-22T12:48:08.791Z,8.80
2023-05-22T12:50:10.595Z,9.35
2023-05-22T12:52:13.053Z,10.32
2023-05-22T12:54:15.384Z,8.00
2023-05-22T12:56:16.932Z,7.45
2023-05-22T12:58:18.531Z,9.15
2023-05-22T13:00:20.346Z,11.38
2023-05-22T13:02:21.918Z,14.40
2023-05-22T13:04:23.422Z,12.00
2023-05-22T13:06:24.993Z,10.88
2023-05-22T13:08:26.513Z,11.85
2023-05-22T13:10:28.036Z,13.70
2023-05-22T13:12:31.493Z,11.85
2023-05-22T13:14:33.258Z,8.65
2023-05-22T13:16:34.898Z,14.70
2023-05-22T13:18:36.527Z,10.23
2023-05-22T13:20:38.665Z,14.13
2023-05-22T13:22:41.731Z,13.38
2023-05-22T13:24:43.239Z,11.95
2023-05-22T13:26:44.773Z,11.80
2023-05-22T13:28:46.309Z,11.18
2023-05-22T13:30:47.825Z,10.98
2023-05-22T13:32:49.473Z,13.90
2023-05-22T13:34:50.967Z,10.00
2023-05-22T13:36:52.658Z,10.05
2023-05-22T13:38:54.176Z,9.45
2023-05-22T13:40:55.805Z,12.00
2023-05-22T13:42:57.374Z,13.55
2023-05-22T13:44:58.898Z,12.27
2023-05-22T13:47:00.558Z,8.98
2023-05-22T13:49:02.109Z,14.52
2023-05-22T13:51:03.759Z,8.95
2023-05-22T13:53:05.333Z,13.48
2023-05-22T13:55:07.129Z,10.45
2023-05-22T13:57:08.709Z,14.23
2023-05-22T13:59:10.555Z,8.85
2023-05-22T14:01:12.060Z,12.50
2023-05-22T14:03:17.599Z,11.63
2023-05-22T14:05:19.471Z,8.35
2023-05-22T14:09:23.669Z,8.52
2023-05-22T14:11:25.183Z,13.15
2023-05-22T14:13:26.721Z,8.93
2023-05-22T14:15:28.245Z,10.10
2023-05-22T14:17:29.810Z,9.73
2023-05-22T14:19:31.411Z,11.48
2023-05-22T14:21:33.054Z,10.30
2023-05-22T14:23:34.606Z,13.52
2023-05-22T14:25:36.226Z,13.98
2023-05-22T14:27:37.732Z,9.25
2023-05-22T14:29:39.209Z,15.82
2023-05-22T14:31:50.498Z,9.48
2023-05-22T14:33:53.113Z,13.65
2023-05-22T14:35:54.632Z,13.23
2023-05-22T14:37:56.161Z,8.90
2023-05-22T14:39:57.654Z,7.95
2023-05-22T14:41:59.257Z,14.60
2023-05-22T14:44:00.900Z,14.43
2023-05-22T14:46:02.536Z,14.35
2023-05-22T14:48:04.791Z,15.10
2023-05-22T14:52:16.093Z,16.42
2023-05-22T14:54:19.070Z,14.07
2023-05-22T14:56:21.807Z,15.27
2023-05-22T14:58:23.304Z,21.63
2023-05-22T15:00:24.863Z,10.70
2023-05-22T15:02:26.544Z,15.38
2023-05-22T15:04:28.125Z,14.25
2023-05-22T15:06:29.722Z,18.45
2023-05-22T15:08:31.231Z,16.67
2023-05-22T15:10:32.829Z,11.57
2023-05-22T15:12:34.401Z,14.05
2023-05-22T15:14:36.011Z,13.80
2023-05-22T15:16:37.607Z,11.73
2023-05-22T15:18:39.202Z,11.93
2023-05-22T15:20:41.152Z,12.52
2023-05-22T15:22:42.738Z,19.55
2023-05-22T15:24:48.184Z,12.40
2023-05-22T15:26:49.716Z,13.23
2023-05-22T15:28:51.315Z,17.27
2023-05-22T15:30:52.956Z,13.55
2023-05-22T15:32:54.482Z,13.18
2023-05-22T15:34:56.099Z,14.70
2023-05-22T15:36:57.613Z,12.05
2023-05-22T15:38:59.131Z,12.48
2023-05-22T15:41:00.700Z,18.92
2023-05-22T15:43:04.024Z,14.35
2023-05-22T15:45:06.156Z,16.92
2023-05-22T15:47:07.673Z,19.10
2023-05-22T15:49:09.154Z,15.18
2023-05-22T15:51:11.396Z,12.35
2023-05-22T15:53:13.027Z,15.15
2023-05-22T15:55:14.687Z,12.82
2023-05-22T15:57:16.720Z,16.33
2023-05-22T15:59:18.259Z,19.42
2023-05-22T16:01:19.866Z,13.73
2023-05-22T16:03:21.575Z,14.68
2023-05-22T16:05:23.274Z,13.50
2023-05-22T16:07:24.822Z,15.85
2023-05-22T16:09:26.398Z,15.27
2023-05-22T16:11:27.897Z,17.50
2023-05-22T16:13:29.442Z,13.15
2023-05-22T16:15:31.691Z,15.00
2023-05-22T16:17:33.289Z,15.63
2023-05-22T16:19:34.978Z,12.65
2023-05-22T16:21:36.854Z,17.77
2023-05-22T16:23:38.368Z,12.23
2023-05-22T16:25:40.058Z,10.98
2023-05-22T16:27:41.738Z,11.32
2023-05-22T16:29:43.238Z,13.25
2023-05-22T16:31:44.813Z,11.65
2023-05-22T16:33:46.455Z,13.80
2023-05-22T16:35:48.489Z,12.25
2023-05-22T16:37:50.844Z,11.57
2023-05-22T16:39:52.760Z,26.88
2023-05-22T16:41:54.286Z,13.85
2023-05-22T16:43:55.966Z,14.63
2023-05-22T16:45:57.466Z,18.05
2023-05-22T16:47:59.026Z,15.00
2023-05-22T16:50:00.824Z,14.65
2023-05-22T16:52:02.561Z,14.07
2023-05-22T16:54:04.275Z,13.63
2023-05-22T16:56:06.030Z,11.65
2023-05-22T16:58:09.092Z,18.02
2023-05-22T17:00:11.161Z,13.35
2023-05-22T17:02:13.622Z,18.90
2023-05-22T17:04:15.923Z,13.60
2023-05-22T17:06:20.184Z,16.00
2023-05-22T17:08:22.589Z,14.32
2023-05-22T17:10:24.086Z,14.77
2023-05-22T17:12:25.667Z,13.43
2023-05-22T17:14:27.190Z,18.05
2023-05-22T17:16:28.705Z,15.05
2023-05-22T17:18:30.603Z,17.98
2023-05-22T17:20:32.880Z,11.80
2023-05-22T17:22:36.020Z,15.70
2023-05-22T17:24:37.606Z,15.57
2023-05-22T17:26:42.844Z,14.82
2023-05-22T17:28:44.631Z,13.55
2023-05-22T17:30:46.657Z,17.75
2023-05-22T17:32:50.364Z,15.80
2023-05-22T17:34:52.109Z,16.52
2023-05-22T17:36:53.616Z,14.63
2023-05-22T17:38:55.101Z,11.82
2023-05-22T17:40:56.684Z,15.52
2023-05-22T17:43:00.319Z,12.77
2023-05-22T17:45:01.832Z,9.48
2023-05-22T17:47:04.312Z,15.85
2023-05-22T17:49:05.813Z,13.23
2023-05-22T17:51:07.339Z,12.10
2023-05-22T17:53:08.836Z,9.13
2023-05-22T17:55:10.528Z,12.40
2023-05-22T17:57:12.101Z,11.45
2023-05-22T17:59:13.774Z,15.18
2023-05-22T18:01:16.874Z,18.85
2023-05-22T18:03:21.749Z,16.27
2023-05-22T18:05:23.393Z,10.02
2023-05-22T18:07:24.903Z,10.00
2023-05-22T18:09:26.434Z,14.23
2023-05-22T18:11:28.028Z,12.98
2023-05-22T18:13:29.587Z,10.27
2023-05-22T18:15:32.889Z,10.10
2023-05-22T18:17:34.782Z,11.55
2023-05-22T18:19:36.404Z,9.55
2023-05-22T18:21:37.959Z,10.05
2023-05-22T18:23:39.469Z,16.95
2023-05-22T18:25:41.544Z,17.85
2023-05-22T18:27:43.178Z,10.20
2023-05-22T18:29:44.752Z,18.15
2023-05-22T18:31:46.414Z,11.02
2023-05-22T18:33:47.950Z,10.48
2023-05-22T18:35:49.620Z,15.93
2023-05-22T18:37:51.437Z,10.57
2023-05-22T18:39:53.008Z,8.82
2023-05-22T18:41:54.650Z,17.75
2023-05-22T18:43:56.294Z,13.60
2023-05-22T18:45:58.358Z,16.05
2023-05-22T18:47:59.907Z,13.45
2023-05-22T18:50:01.563Z,11.05
2023-05-22T18:52:03.345Z,12.38
2023-05-22T18:54:04.872Z,14.70
2023-05-22T18:56:06.417Z,17.02
2023-05-22T18:58:08.045Z,15.02
2023-05-22T19:00:10.444Z,16.80
2023-05-22T19:02:11.955Z,15.55
2023-05-22T19:04:13.635Z,17.95
2023-05-22T19:06:15.194Z,12.73
2023-05-22T19:08:16.788Z,11.90
2023-05-22T19:10:18.460Z,13.38
2023-05-22T19:12:20.100Z,11.18
2023-05-22T19:14:21.664Z,14.10
2023-05-22T19:16:23.245Z,16.25
2023-05-22T19:18:24.963Z,12.70
2023-05-22T19:20:26.608Z,16.98
2023-05-22T19:22:28.138Z,12.98
2023-05-22T19:24:29.693Z,18.92
2023-05-22T19:26:31.658Z,15.75
2023-05-22T19:28:33.272Z,21.00
2023-05-22T19:30:35.040Z,12.77
2023-05-22T19:32:36.660Z,17.63
2023-05-22T19:34:38.632Z,15.07
2023-05-22T19:36:40.130Z,15.63
2023-05-22T19:38:41.646Z,21.00
2023-05-22T19:40:43.218Z,19.65
2023-05-22T19:42:44.818Z,18.40
2023-05-22T19:44:46.334Z,18.20
2023-05-22T19:46:48.073Z,12.55
2023-05-22T19:48:49.638Z,18.45
2023-05-22T19:50:51.472Z,16.17
2023-05-22T19:52:52.998Z,14.52
2023-05-22T19:54:55.061Z,20.05
2023-05-22T19:56:56.573Z,15.25
2023-05-22T19:58:58.048Z,17.27
2023-05-22T20:00:59.579Z,17.75
2023-05-22T20:03:01.437Z,16.52
2023-05-22T20:05:03.274Z,13.55
2023-05-22T20:07:05.672Z,20.95
2023-05-22T20:09:07.152Z,18.52
2023-05-22T20:11:08.807Z,16.45
2023-05-22T20:13:10.356Z,19.48
2023-05-22T20:15:14.773Z,15.27
2023-05-22T20:17:18.120Z,21.27
2023-05-22T20:19:19.885Z,12.63
2023-05-22T20:21:21.595Z,17.85
2023-05-22T20:23:23.133Z,19.23
2023-05-22T20:25:24.844Z,24.60
2023-05-22T20:27:26.493Z,19.63
2023-05-22T20:29:28.071Z,19.55
2023-05-22T20:31:29.603Z,17.17
2023-05-22T20:33:31.494Z,17.65
2023-05-22T20:35:33.803Z,18.98
2023-05-22T20:37:35.328Z,22.10
2023-05-22T20:39:37.508Z,14.23
2023-05-22T20:41:39.035Z,20.58
2023-05-22T20:43:43.283Z,17.67
2023-05-22T20:45:45.914Z,15.13
2023-05-22T20:47:47.665Z,17.38
2023-05-22T20:49:49.326Z,19.13
2023-05-22T20:51:51.515Z,19.52
2023-05-22T20:53:53.509Z,20.25
2023-05-22T20:55:55.430Z,19.05
2023-05-22T20:57:56.965Z,20.30
2023-05-22T20:59:58.604Z,14.05
2023-05-22T21:02:01.187Z,16.50
2023-05-22T21:04:03.086Z,19.10
2023-05-22T21:06:04.910Z,15.32
2023-05-22T21:08:06.422Z,18.52
2023-05-22T21:10:08.488Z,23.02
2023-05-22T21:12:10.048Z,14.75
2023-05-22T21:14:11.612Z,18.33
2023-05-22T21:16:13.150Z,23.88
2023-05-22T21:18:14.722Z,17.75
2023-05-22T21:20:16.352Z,16.52
2023-05-22T21:22:17.880Z,17.67
2023-05-22T21:24:20.727Z,19.73
2023-05-22T21:26:23.040Z,23.27
2023-05-22T21:28:24.676Z,22.65
2023-05-22T21:30:26.161Z,16.98
2023-05-22T21:32:27.763Z,15.93
2023-05-22T21:34:29.312Z,17.90
2023-05-22T21:36:31.865Z,23.70
2023-05-22T21:38:33.354Z,20.77
2023-05-22T21:40:34.880Z,20.63
2023-05-22T21:42:46.689Z,19.63
2023-05-22T21:44:48.721Z,17.38
2023-05-22T21:46:50.280Z,20.90
2023-05-22T21:48:53.576Z,18.10
2023-05-22T21:50:55.411Z,23.67
2023-05-22T21:52:56.920Z,20.48
2023-05-22T21:54:58.693Z,25.55
2023-05-22T21:57:00.406Z,18.55
2023-05-22T21:59:01.943Z,30.58
2023-05-22T22:01:03.617Z,15.98
2023-05-22T22:03:05.341Z,16.40
2023-05-22T22:05:07.252Z,21.60
2023-05-22T22:07:08.832Z,23.02
2023-05-22T22:09:10.733Z,25.15
2023-05-22T22:11:12.266Z,22.63
2023-05-22T22:13:13.794Z,21.02
2023-05-22T22:15:15.581Z,25.35
2023-05-22T22:17:17.085Z,27.42
2023-05-22T22:19:18.676Z,27.30
2023-05-22T22:21:20.559Z,18.33
2023-05-22T22:23:22.202Z,22.65
2023-05-22T22:25:23.730Z,19.63
2023-05-22T22:27:25.492Z,18.30
2023-05-22T22:29:26.991Z,19.88
2023-05-22T22:31:28.531Z,18.17
2023-05-22T22:33:30.531Z,19.25
2023-05-22T22:35:32.107Z,18.20
2023-05-22T22:37:33.603Z,19.75
2023-05-22T22:39:35.105Z,20.25
2023-05-22T22:41:36.626Z,20.08
2023-05-22T22:43:38.133Z,16.10
2023-05-22T22:45:40.229Z,14.93
2023-05-22T22:47:42.019Z,15.20
2023-05-22T22:49:43.553Z,16.00
2023-05-22T22:51:45.054Z,15.10
2023-05-22T22:53:46.620Z,15.18
2023-05-22T22:55:48.962Z,15.85
2023-05-22T22:57:51.558Z,13.52
2023-05-22T22:59:53.049Z,15.25
2023-05-22T23:01:54.603Z,13.13
2023-05-22T23:03:56.247Z,12.85
2023-05-22T23:05:57.838Z,10.68
2023-05-22T23:08:02.014Z,14.48
2023-05-22T23:10:04.191Z,12.00
2023-05-22T23:12:06.412Z,11.23
2023-05-22T23:14:08.802Z,12.63
2023-05-22T23:16:10.397Z,15.98
2023-05-22T23:18:13.898Z,11.35
2023-05-22T23:20:15.526Z,11.25
2023-05-22T23:22:18.925Z,12.40
2023-05-22T23:24:20.431Z,12.25
2023-05-22T23:26:22.018Z,11.95
2023-05-22T23:28:23.525Z,12.77
2023-05-22T23:30:25.093Z,12.60
2023-05-22T23:32:26.693Z,12.63
2023-05-22T23:34:28.252Z,15.48
2023-05-22T23:36:29.833Z,15.57
2023-05-22T23:38:31.404Z,12.02
2023-05-22T23:40:32.940Z,11.10
2023-05-22T23:42:35.630Z,12.77
2023-05-22T23:44:37.243Z,12.02
2023-05-22T23:46:39.779Z,14.02
2023-05-22T23:48:42.051Z,13.98
2023-05-22T23:50:43.771Z,14.90
2023-05-22T23:52:45.974Z,11.77
2023-05-22T23:54:47.502Z,12.57
2023-05-22T23:56:49.023Z,12.85
2023-05-22T23:58:50.637Z,18.60
